Time;durP1;ratioP1;P1;durP2;ratioP2;P2;SDS_P1;SDS_P2;PMS_P1;PMS_P2;Temp;Humidity;BMP_temperature;BMP_pressure;BME280_temperature;BME280_humidity;BME280_pressure;Samples;Min_cycle;Max_cycle;Signal;HPM_P1;HPM_P2
2023/12/05 00:01:33;;;;;;;;;0.00;0.00;;;;;9.21;89.93;99681.94;5060517;28;47658;-59
2023/12/05 00:03:59;;;;;;;;;0.00;0.00;;;;;9.22;89.80;99683.66;5094055;27;45614;-59
2023/12/05 00:06:25;;;;;;;;;0.00;0.00;;;;;9.21;89.95;99687.25;5059539;28;46473;-59
2023/12/05 00:08:50;;;;;;;;;2.00;0.00;;;;;9.19;89.62;99682.03;5060077;28;67917;-59
2023/12/05 00:11:15;;;;;;;;;1.67;0.00;;;;;9.19;89.05;99682.03;5059545;28;68717;-59
2023/12/05 00:13:41;;;;;;;;;2.00;0.00;;;;;9.18;88.92;99690.94;5072478;28;71677;-59
2023/12/05 00:16:07;;;;;;;;;0.00;0.00;;;;;9.18;89.07;99687.44;5056969;28;46721;-59
2023/12/05 00:18:33;;;;;;;;;1.00;1.00;;;;;9.19;89.02;99674.06;5093934;27;45357;-59
2023/12/05 00:20:59;;;;;;;;;0.00;0.00;;;;;9.18;88.79;99677.66;5059427;28;45426;-59
2023/12/05 00:23:24;;;;;;;;;0.33;0.00;;;;;9.16;87.81;99682.22;5060984;28;46311;-59
2023/12/05 00:25:50;;;;;;;;;0.00;0.00;;;;;9.15;87.37;99685.84;5095406;27;45333;-59
2023/12/05 00:28:15;;;;;;;;;0.00;0.00;;;;;9.16;87.80;99684.84;5068987;27;72884;-59
2023/12/05 00:30:40;;;;;;;;;0.00;0.00;;;;;9.18;87.38;99684.78;5059955;28;68441;-59
2023/12/05 00:33:06;;;;;;;;;1.00;0.00;;;;;9.19;86.81;99683.81;5060523;28;45355;-60
2023/12/05 00:35:32;;;;;;;;;0.00;0.00;;;;;9.19;86.60;99684.69;5060406;28;45527;-59
2023/12/05 00:37:58;;;;;;;;;0.00;0.00;;;;;9.15;85.38;99675.22;5060807;28;45678;-59
2023/12/05 00:40:29;;;;;;;;;0.00;0.00;;;;;9.17;86.49;99677.78;5061021;28;45181;-59
2023/12/05 00:42:55;;;;;;;;;0.00;0.00;;;;;9.19;85.80;99686.47;5062419;28;45510;-59
2023/12/05 00:45:20;;;;;;;;;0.00;0.00;;;;;9.20;85.54;99683.72;5050309;28;46183;-59
2023/12/05 00:47:46;;;;;;;;;0.00;0.00;;;;;9.22;85.78;99686.31;5058876;28;45384;-59
2023/12/05 00:50:11;;;;;;;;;0.00;0.00;;;;;9.21;85.78;99685.44;5059022;28;68463;-59
2023/12/05 00:52:36;;;;;;;;;0.00;0.00;;;;;9.21;85.17;99682.78;5059728;28;69196;-59
2023/12/05 00:55:02;;;;;;;;;0.00;0.00;;;;;9.21;84.80;99685.44;5091987;27;63763;-59
2023/12/05 00:57:27;;;;;;;;;0.00;0.00;;;;;9.21;84.99;99692.56;5058800;28;45452;-59
2023/12/05 00:59:52;;;;;;;;;0.00;0.00;;;;;9.21;84.77;99690.72;5059228;28;69534;-59
2023/12/05 01:02:18;;;;;;;;;0.00;0.00;;;;;9.21;84.59;99697.84;5092262;27;68981;-59
2023/12/05 01:04:43;;;;;;;;;0.00;0.00;;;;;9.23;84.90;99694.16;5059241;28;76005;-60
2023/12/05 01:07:12;;;;;;;;;0.00;0.00;;;;;9.25;84.69;99702.84;5058857;28;68548;-59
2023/12/05 01:09:38;;;;;;;;;0.00;0.00;;;;;9.23;82.94;99694.16;5060588;28;45371;-60
2023/12/05 01:12:03;;;;;;;;;0.00;0.00;;;;;9.25;83.92;99697.56;5059796;28;45375;-59
2023/12/05 01:14:29;;;;;;;;;0.00;0.00;;;;;9.24;83.33;99701.19;5060389;28;47813;-59
2023/12/05 01:16:54;;;;;;;;;0.33;0.00;;;;;9.25;83.61;99702.03;5059442;28;51303;-59
2023/12/05 01:19:19;;;;;;;;;0.00;0.00;;;;;9.24;83.27;99698.53;5093370;27;45287;-59
2023/12/05 01:21:45;;;;;;;;;0.00;0.00;;;;;9.26;83.39;99711.69;5057687;28;70552;-59
2023/12/05 01:24:10;;;;;;;;;0.00;0.00;;;;;9.25;83.18;99718.78;5058959;28;71932;-59
2023/12/05 01:26:35;;;;;;;;;1.00;0.00;;;;;9.25;82.67;99713.47;5057584;28;74038;-59
2023/12/05 01:29:02;;;;;;;;;0.00;0.00;;;;;9.24;82.60;99714.44;5058126;28;49284;-61
2023/12/05 01:31:28;;;;;;;;;0.00;0.00;;;;;9.23;81.75;99715.38;5058431;28;46184;-59
2023/12/05 01:33:53;;;;;;;;;1.00;0.00;;;;;9.20;82.02;99718.22;5059516;28;45387;-59
2023/12/05 01:36:19;;;;;;;;;0.00;0.00;;;;;9.19;81.66;99719.19;5058350;28;45419;-59
2023/12/05 01:38:44;;;;;;;;;1.00;0.00;;;;;9.18;81.89;99717.47;5058541;28;45592;-59
2023/12/05 01:41:09;;;;;;;;;0.00;0.00;;;;;9.17;81.69;99720.22;5058283;28;45319;-59
2023/12/05 01:43:34;;;;;;;;;0.00;0.00;;;;;9.17;81.60;99723.72;5058677;28;75669;-59
2023/12/05 01:46:00;;;;;;;;;1.00;0.00;;;;;9.18;81.30;99729.91;5091534;27;62480;-59
2023/12/05 01:48:26;;;;;;;;;0.00;0.00;;;;;9.19;81.89;99729.78;5057367;28;67397;-59
2023/12/05 01:50:52;;;;;;;;;0.00;0.00;;;;;9.20;81.27;99730.63;5058831;28;62347;-59
2023/12/05 01:53:18;;;;;;;;;0.00;0.00;;;;;9.18;80.92;99735.19;5058269;28;45445;-59
2023/12/05 01:55:44;;;;;;;;;0.00;0.00;;;;;9.15;80.51;99736.25;5058768;28;67399;-59
2023/12/05 01:58:10;;;;;;;;;0.00;0.00;;;;;9.12;81.10;99744.38;5037639;28;45674;-59
2023/12/05 02:00:39;;;;;;;;;0.00;0.00;;;;;9.12;81.03;99749.66;5054200;28;70478;-59
2023/12/05 02:03:04;;;;;;;;;0.00;0.00;;;;;9.08;81.09;99741.03;5057893;28;75507;-59
2023/12/05 02:05:30;;;;;;;;;0.00;0.00;;;;;9.06;80.84;99731.47;5053841;28;72874;-59
2023/12/05 02:07:55;;;;;;;;;0.00;0.00;;;;;9.06;80.59;99736.78;5058020;28;45351;-60
2023/12/05 02:10:21;;;;;;;;;0.00;0.00;;;;;9.04;80.74;99755.44;5091295;27;70619;-59
2023/12/05 02:12:46;;;;;;;;;0.00;0.00;;;;;9.04;80.67;99758.09;5059170;28;46771;-59
2023/12/05 02:15:12;;;;;;;;;0.00;0.00;;;;;9.02;80.35;99760.00;5058183;28;73204;-59
2023/12/05 02:17:38;;;;;;;;;0.00;0.00;;;;;9.00;80.68;99766.34;5056082;28;45437;-59
2023/12/05 02:20:18;;;;;;;;;0.00;0.00;;;;;8.96;80.91;99767.44;5054645;28;46053;-59
2023/12/05 02:23:02;;;;;;;;;0.00;0.00;;;;;8.94;80.95;99772.84;5056807;28;45529;-59
2023/12/05 02:25:55;;;;;;;;;0.00;0.00;;;;;8.89;80.90;99778.44;5059221;28;45310;-59
2023/12/05 02:28:21;;;;;;;;;0.00;0.00;;;;;8.86;81.21;99769.81;5056061;28;45263;-58
2023/12/05 02:30:46;;;;;;;;;0.00;0.00;;;;;8.81;81.13;99778.03;5056851;28;66621;-59
2023/12/05 02:33:12;;;;;;;;;0.00;0.00;;;;;8.79;81.77;99774.63;5085415;27;75686;-59
2023/12/05 02:35:38;;;;;;;;;0.00;0.00;;;;;8.77;81.65;99785.31;5055279;28;45252;-58
2023/12/05 02:38:13;;;;;;;;;0.00;0.00;;;;;8.75;81.54;99789.84;5091107;27;45428;-59
2023/12/05 02:40:50;;;;;;;;;0.00;0.00;;;;;8.76;81.90;99801.31;5059226;28;45445;-59
2023/12/05 02:43:20;;;;;;;;;0.00;0.00;;;;;8.73;82.51;99791.72;5057944;28;46114;-59
2023/12/05 02:45:49;;;;;;;;;0.00;0.00;;;;;8.71;82.21;99783.03;5052561;28;45376;-59
2023/12/05 02:48:15;;;;;;;;;0.00;0.00;;;;;8.69;82.38;99790.19;5057598;28;45607;-58
2023/12/05 02:50:40;;;;;;;;;0.00;0.00;;;;;8.63;82.80;99787.06;5057777;28;70405;-58
2023/12/05 02:53:06;;;;;;;;;0.00;0.00;;;;;8.63;83.41;99787.06;5056345;28;75143;-59
2023/12/05 02:55:31;;;;;;;;;0.00;0.00;;;;;8.59;84.22;99786.38;5057876;28;73308;-59
2023/12/05 02:57:56;;;;;;;;;0.00;0.00;;;;;8.50;84.33;99786.91;5083347;27;69090;-59
2023/12/05 03:00:22;;;;;;;;;0.00;0.00;;;;;8.36;84.84;99783.22;5051869;28;50644;-59
2023/12/05 03:02:47;;;;;;;;;0.00;0.00;;;;;8.31;85.07;99787.94;5056461;28;75179;-59
2023/12/05 03:05:12;;;;;;;;;0.00;0.00;;;;;8.26;85.42;99780.22;5056804;28;73323;-59
2023/12/05 03:07:38;;;;;;;;;0.00;0.00;;;;;8.24;85.68;99781.28;5074587;28;45328;-59
2023/12/05 03:10:04;;;;;;;;;0.00;0.00;;;;;8.22;85.88;99775.22;5058141;28;45566;-59
2023/12/05 03:12:33;;;;;;;;;0.00;0.00;;;;;8.20;85.89;99782.38;5061579;28;45507;-59
2023/12/05 03:14:58;;;;;;;;;0.00;0.00;;;;;8.15;86.25;99780.00;5061576;28;45488;-59
2023/12/05 03:17:23;;;;;;;;;0.00;0.00;;;;;8.15;85.73;99771.19;5062584;28;45343;-59
2023/12/05 03:19:49;;;;;;;;;0.00;0.00;;;;;8.06;87.25;99765.47;5060991;28;69240;-59
2023/12/05 03:22:14;;;;;;;;;0.00;0.00;;;;;8.00;87.04;99772.91;5061728;28;46020;-59
2023/12/05 03:24:39;;;;;;;;;0.00;0.00;;;;;7.91;87.25;99776.91;5076619;28;72967;-59
2023/12/05 03:27:05;;;;;;;;;0.00;0.00;;;;;7.89;87.41;99774.34;5093566;27;68332;-59
2023/12/05 03:29:30;;;;;;;;;1.00;0.00;;;;;7.81;88.24;99783.66;5060795;28;68889;-58
2023/12/05 03:31:55;;;;;;;;;0.00;0.00;;;;;7.82;88.09;99790.66;5060683;28;74602;-59
2023/12/05 03:34:20;;;;;;;;;0.00;0.00;;;;;7.80;87.83;99792.56;5060525;28;71230;-59
2023/12/05 03:36:46;;;;;;;;;0.33;0.00;;;;;7.81;88.28;99796.88;5060777;28;45394;-59
2023/12/05 03:39:11;;;;;;;;;0.00;0.00;;;;;7.75;88.54;99788.34;5060454;28;70422;-59
2023/12/05 03:41:36;;;;;;;;;0.00;0.00;;;;;7.73;90.07;99784.06;5059703;28;75836;-59
2023/12/05 03:44:02;;;;;;;;;0.00;0.00;;;;;7.72;90.06;99788.50;5058871;28;72190;-59
2023/12/05 03:46:27;;;;;;;;;0.00;0.00;;;;;7.73;90.03;99784.94;5061602;28;45259;-59
2023/12/05 03:48:52;;;;;;;;;1.00;0.00;;;;;7.74;89.98;99797.25;5093704;27;49749;-59
2023/12/05 03:51:18;;;;;;;;;0.00;0.00;;;;;7.76;90.44;99797.16;5060010;28;75974;-58
2023/12/05 03:53:43;;;;;;;;;0.00;0.00;;;;;7.76;90.36;99803.28;5061972;28;69981;-58
2023/12/05 03:56:08;;;;;;;;;0.00;0.00;;;;;7.76;90.61;99805.94;5058999;28;68960;-58
2023/12/05 03:58:34;;;;;;;;;0.00;0.00;;;;;7.78;91.07;99812.03;5061033;28;45475;-58
2023/12/05 04:00:59;;;;;;;;;0.00;0.00;;;;;7.77;91.17;99814.75;5059849;28;72346;-58
2023/12/05 04:03:24;;;;;;;;;0.00;0.00;;;;;7.78;91.55;99819.97;5060052;28;45383;-58
2023/12/05 04:05:50;;;;;;;;;0.00;0.00;;;;;7.83;91.47;99829.44;5059490;28;47337;-58
2023/12/05 04:08:15;;;;;;;;;0.00;0.00;;;;;7.85;91.97;99833.72;5066326;28;70449;-58
2023/12/05 04:10:40;;;;;;;;;0.00;0.00;;;;;7.86;91.95;99838.09;5072441;28;74518;-58
2023/12/05 04:13:06;;;;;;;;;0.00;0.00;;;;;7.88;91.97;99849.44;5067923;28;51529;-58
2023/12/05 04:15:31;;;;;;;;;0.00;0.00;;;;;7.91;91.41;99857.22;5070448;28;45780;-58
2023/12/05 04:17:56;;;;;;;;;0.00;0.00;;;;;7.93;91.91;99859.78;5065531;28;70535;-58
2023/12/05 04:20:22;;;;;;;;;0.00;0.00;;;;;7.94;91.89;99859.69;5063750;28;74249;-58
2023/12/05 04:22:47;;;;;;;;;0.00;0.00;;;;;7.97;91.56;99866.63;5058612;28;45300;-58
2023/12/05 04:25:12;;;;;;;;;0.00;0.00;;;;;7.98;91.81;99870.97;5068583;28;68157;-58
2023/12/05 04:27:38;;;;;;;;;0.00;0.00;;;;;7.99;91.76;99869.19;5070129;28;45314;-59
2023/12/05 04:30:04;;;;;;;;;0.00;0.00;;;;;8.01;92.28;99867.31;5087294;27;45551;-58
2023/12/05 04:32:29;;;;;;;;;0.00;0.00;;;;;8.05;92.11;99879.44;5065770;27;45395;-59
2023/12/05 04:34:55;;;;;;;;;0.00;0.00;;;;;8.09;91.73;99886.28;5064804;28;62080;-58
2023/12/05 04:37:20;;;;;;;;;1.00;0.00;;;;;8.09;91.50;99876.53;5069588;27;64522;-59
2023/12/05 04:39:45;;;;;;;;;0.00;0.00;;;;;8.09;91.78;99884.47;5069936;28;45992;-58
2023/12/05 04:42:11;;;;;;;;;0.00;0.00;;;;;8.10;91.83;99882.72;5068963;27;73165;-58
2023/12/05 04:44:36;;;;;;;;;0.00;0.00;;;;;8.15;91.49;99893.03;5067242;28;69363;-58
2023/12/05 04:47:03;;;;;;;;;0.00;0.00;;;;;8.13;91.71;99892.28;5078769;27;45708;-60
2023/12/05 04:49:29;;;;;;;;;0.00;0.00;;;;;8.16;91.97;99897.41;5073958;28;45584;-58
2023/12/05 04:51:54;;;;;;;;;0.00;0.00;;;;;8.17;91.68;99902.59;5067480;28;45727;-57
2023/12/05 04:54:19;;;;;;;;;0.00;0.00;;;;;8.19;91.68;99910.50;5068184;28;61385;-59
2023/12/05 04:56:45;;;;;;;;;0.00;0.00;;;;;8.20;91.77;99909.53;5070451;28;66478;-59
2023/12/05 04:59:10;;;;;;;;;0.00;0.00;;;;;8.21;91.73;99911.25;5083954;27;66739;-59
2023/12/05 05:01:35;;;;;;;;;0.00;0.00;;;;;8.22;91.56;99912.97;5067570;28;45474;-59
2023/12/05 05:04:01;;;;;;;;;0.00;0.00;;;;;8.22;91.51;99905.88;5069656;28;58473;-59
2023/12/05 05:06:26;;;;;;;;;0.00;0.00;;;;;8.25;91.67;99911.03;5056318;28;56888;-59
2023/12/05 05:08:51;;;;;;;;;0.00;0.00;;;;;8.26;91.46;99918.00;5057761;28;67086;-59
2023/12/05 05:11:17;;;;;;;;;0.00;0.00;;;;;8.27;91.51;99919.72;5068128;28;45676;-59
2023/12/05 05:13:42;;;;;;;;;1.00;0.00;;;;;8.27;91.40;99922.38;5069597;27;60920;-59
2023/12/05 05:16:08;;;;;;;;;0.00;0.00;;;;;8.28;91.61;99928.53;5066558;28;45706;-59
2023/12/05 05:18:34;;;;;;;;;0.00;0.00;;;;;8.29;91.98;99935.53;5088885;27;45676;-59
2023/12/05 05:21:00;;;;;;;;;0.00;0.00;;;;;8.31;91.19;99932.81;5067792;28;45607;-59
2023/12/05 05:23:25;;;;;;;;;0.00;0.00;;;;;8.32;91.54;99937.16;5071317;28;69317;-59
2023/12/05 05:25:50;;;;;;;;;0.00;0.00;;;;;8.32;91.52;99945.09;5063563;27;45476;-59
2023/12/05 05:28:16;;;;;;;;;0.00;0.00;;;;;8.33;91.23;99945.06;5088656;27;77755;-59
2023/12/05 05:30:41;;;;;;;;;0.00;0.00;;;;;8.34;91.07;99952.03;5069965;27;72092;-59
2023/12/05 05:33:06;;;;;;;;;0.00;0.00;;;;;8.34;91.26;99957.34;5068791;27;61394;-59
2023/12/05 05:35:32;;;;;;;;;0.00;0.00;;;;;8.36;90.80;99957.28;5068181;27;67294;-58
2023/12/05 05:37:57;;;;;;;;;0.00;0.00;;;;;8.34;90.78;99953.84;5066787;28;49523;-58
2023/12/05 05:40:22;;;;;;;;;0.00;0.00;;;;;8.34;90.58;99962.63;5063116;28;45298;-58
2023/12/05 05:42:48;;;;;;;;;0.00;0.00;;;;;8.32;91.16;99961.00;5088265;27;45731;-58
2023/12/05 05:45:13;;;;;;;;;0.00;0.00;;;;;8.30;90.72;99966.38;5063253;28;69417;-58
2023/12/05 05:47:38;;;;;;;;;1.33;0.67;;;;;8.31;90.94;99976.06;5066458;28;45447;-59
2023/12/05 05:50:05;;;;;;;;;0.00;0.00;;;;;8.30;91.16;99979.63;5070672;27;45615;-59
2023/12/05 05:52:30;;;;;;;;;0.00;0.00;;;;;8.29;90.81;99977.91;5068024;28;45537;-58
2023/12/05 05:54:55;;;;;;;;;0.00;0.00;;;;;8.32;90.91;99983.06;5064814;28;45638;-59
2023/12/05 05:57:21;;;;;;;;;0.67;0.00;;;;;8.34;91.40;99994.44;5068426;28;49171;-59
2023/12/05 05:59:47;;;;;;;;;0.00;0.00;;;;;8.35;91.01;99985.56;5059565;27;45483;-59
2023/12/05 06:02:12;;;;;;;;;0.00;0.00;;;;;8.37;90.87;99994.28;5057667;28;45488;-59
2023/12/05 06:04:41;;;;;;;;;0.00;0.00;;;;;8.37;90.73;99999.59;5056212;28;45614;-59
2023/12/05 06:07:06;;;;;;;;;0.00;0.00;;;;;8.36;90.67;100002.31;5048487;28;47523;-59
2023/12/05 06:09:32;;;;;;;;;0.00;0.00;;;;;8.35;90.23;100011.22;5057249;28;45371;-59
2023/12/05 06:11:57;;;;;;;;;0.00;0.00;;;;;8.34;90.55;100005.03;5088577;27;68981;-59
2023/12/05 06:14:22;;;;;;;;;2.00;0.67;;;;;8.36;90.69;100012.94;5059389;28;45309;-59
2023/12/05 06:16:48;;;;;;;;;0.00;0.00;;;;;8.36;90.21;100015.56;5058572;28;64109;-59
2023/12/05 06:19:13;;;;;;;;;0.33;0.33;;;;;8.37;90.27;100025.22;5056483;28;54982;-59
2023/12/05 06:21:38;;;;;;;;;0.33;0.00;;;;;8.37;90.31;100019.91;5090972;27;69571;-59
2023/12/05 06:24:04;;;;;;;;;1.00;0.00;;;;;8.39;90.12;100031.31;5065084;28;69487;-59
2023/12/05 06:26:29;;;;;;;;;0.00;0.00;;;;;8.39;89.89;100028.66;5057967;28;46424;-59
2023/12/05 06:28:55;;;;;;;;;0.00;0.00;;;;;8.37;89.70;100039.34;5055939;28;71671;-60
2023/12/05 06:31:20;;;;;;;;;0.00;0.00;;;;;8.37;89.45;100042.00;5040256;28;68311;-60
2023/12/05 06:33:45;;;;;;;;;0.00;0.00;;;;;8.36;89.69;100050.88;5057665;28;45538;-59
2023/12/05 06:36:12;;;;;;;;;1.00;0.67;;;;;8.36;89.42;100048.22;5054953;28;48351;-59
2023/12/05 06:38:37;;;;;;;;;0.00;0.00;;;;;8.35;89.23;100051.81;5079389;27;45530;-59
2023/12/05 06:41:03;;;;;;;;;0.00;0.00;;;;;8.35;89.44;100058.91;5057062;28;69172;-59
2023/12/05 06:43:28;;;;;;;;;0.00;0.00;;;;;8.36;89.25;100058.81;5058342;28;45236;-59
2023/12/05 06:45:53;;;;;;;;;1.33;0.00;;;;;8.36;89.25;100069.41;5069523;28;76357;-59
2023/12/05 06:48:19;;;;;;;;;0.00;0.00;;;;;8.37;89.07;100065.84;5085991;27;45477;-59
2023/12/05 06:50:46;;;;;;;;;0.00;0.00;;;;;8.39;89.35;100071.91;5057298;28;66508;-59
2023/12/05 06:53:12;;;;;;;;;0.00;0.00;;;;;8.40;89.23;100084.22;5058359;28;45490;-60
2023/12/05 06:55:37;;;;;;;;;0.00;0.00;;;;;8.39;89.12;100090.44;5058356;28;45583;-59
2023/12/05 06:58:03;;;;;;;;;0.00;0.00;;;;;8.39;88.55;100084.31;5056777;28;45334;-59
2023/12/05 07:00:29;;;;;;;;;0.00;0.00;;;;;8.36;88.32;100087.97;5059663;28;56148;-59
2023/12/05 07:02:54;;;;;;;;;0.33;0.00;;;;;8.37;88.56;100100.28;5090510;27;45574;-59
2023/12/05 07:05:19;;;;;;;;;0.00;0.00;;;;;8.37;88.60;100099.41;5056220;28;74539;-59
2023/12/05 07:07:45;;;;;;;;;0.00;0.00;;;;;8.38;88.50;100109.97;5055970;28;45699;-59
2023/12/05 07:10:10;;;;;;;;;1.00;0.00;;;;;8.38;88.23;100107.31;5056025;28;45470;-59
2023/12/05 07:12:36;;;;;;;;;0.00;0.00;;;;;8.34;87.80;100111.03;5057422;28;45417;-58
2023/12/05 07:15:01;;;;;;;;;0.00;0.00;;;;;8.32;87.91;100118.22;5090764;27;45440;-59
2023/12/05 07:17:26;;;;;;;;;0.67;0.00;;;;;8.33;88.06;100134.97;5057198;28;71115;-59
2023/12/05 07:19:51;;;;;;;;;0.00;0.00;;;;;8.31;88.03;100128.91;5056480;28;66856;-60
2023/12/05 07:22:17;;;;;;;;;0.00;0.00;;;;;8.30;88.11;100135.13;5056358;28;64348;-60
2023/12/05 07:24:43;;;;;;;;;0.00;0.00;;;;;8.31;88.09;100140.34;5058206;28;49805;-59
2023/12/05 07:27:08;;;;;;;;;0.67;0.67;;;;;8.33;88.09;100143.78;5056246;28;45394;-60
2023/12/05 07:29:34;;;;;;;;;0.33;0.33;;;;;8.33;87.64;100154.38;5059528;27;65791;-59
2023/12/05 07:31:59;;;;;;;;;0.00;0.00;;;;;8.29;87.58;100152.81;5090142;27;45453;-59
2023/12/05 07:34:24;;;;;;;;;1.00;0.00;;;;;8.26;87.31;100167.06;5057705;28;46304;-60
2023/12/05 07:36:50;;;;;;;;;0.00;0.00;;;;;8.27;87.58;100165.28;5064071;28;73840;-60
2023/12/05 07:39:15;;;;;;;;;0.00;0.00;;;;;8.28;87.33;100172.31;5065359;28;45469;-60
2023/12/05 07:41:41;;;;;;;;;0.00;0.00;;;;;8.26;87.18;100171.53;5051190;28;45640;-59
2023/12/05 07:44:06;;;;;;;;;0.00;0.00;;;;;8.26;87.17;100171.53;5058085;28;46718;-60
2023/12/05 07:46:32;;;;;;;;;0.00;0.00;;;;;8.27;87.42;100176.72;5056739;28;45335;-60
2023/12/05 07:48:57;;;;;;;;;0.00;0.00;;;;;8.30;87.71;100181.03;5056977;28;45438;-60
2023/12/05 07:51:23;;;;;;;;;1.00;1.00;;;;;8.31;87.33;100181.91;5057771;28;45551;-60
2023/12/05 07:53:50;;;;;;;;;0.33;0.00;;;;;8.31;87.38;100193.34;5045419;28;74396;-60
2023/12/05 07:56:15;;;;;;;;;0.33;0.33;;;;;8.31;87.16;100193.34;5053199;28;45301;-60
2023/12/05 07:58:40;;;;;;;;;0.00;0.00;;;;;8.32;87.33;100199.50;5056345;28;67195;-61
2023/12/05 08:01:06;;;;;;;;;0.33;0.33;;;;;8.33;87.38;100199.44;5059244;28;68640;-60
2023/12/05 08:03:33;;;;;;;;;0.33;0.33;;;;;8.33;87.12;100206.50;5061457;28;46003;-60
2023/12/05 08:06:01;;;;;;;;;2.00;0.00;;;;;8.32;86.89;100210.09;5060372;28;45342;-59
2023/12/05 08:08:27;;;;;;;;;1.00;1.00;;;;;8.31;87.33;100211.91;5054952;28;46954;-60
2023/12/05 08:10:52;;;;;;;;;0.00;0.00;;;;;8.33;87.06;100211.81;5059616;28;45450;-60
2023/12/05 08:13:17;;;;;;;;;0.00;0.00;;;;;8.32;86.66;100210.97;5054074;28;75408;-59
2023/12/05 08:15:43;;;;;;;;;2.00;0.00;;;;;8.32;86.79;100218.03;5055962;28;73306;-59
2023/12/05 08:18:08;;;;;;;;;1.67;0.00;;;;;8.33;86.79;100223.28;5059248;28;45421;-59
2023/12/05 08:20:33;;;;;;;;;1.33;0.00;;;;;8.35;86.94;100226.69;5059715;28;45362;-59
2023/12/05 08:22:59;;;;;;;;;1.00;1.00;;;;;8.36;87.00;100227.56;5059909;28;55078;-59
2023/12/05 08:25:24;;;;;;;;;2.00;1.00;;;;;8.38;86.81;100228.34;5058445;28;45396;-59
2023/12/05 08:27:49;;;;;;;;;1.00;1.00;;;;;8.40;86.87;100234.44;5059522;28;68287;-59
2023/12/05 08:30:15;;;;;;;;;2.00;0.00;;;;;8.41;86.87;100237.00;5059820;28;45571;-59
2023/12/05 08:32:40;;;;;;;;;1.00;1.00;;;;;8.43;86.37;100242.22;5060497;28;46177;-58
2023/12/05 08:35:07;;;;;;;;;0.00;0.00;;;;;8.42;86.42;100249.31;5058628;28;45447;-58
2023/12/05 08:37:32;;;;;;;;;0.00;0.00;;;;;8.45;86.67;100248.31;5060554;28;45343;-58
2023/12/05 08:39:58;;;;;;;;;0.33;0.33;;;;;8.47;86.51;100253.56;5059689;28;45389;-58
2023/12/05 08:42:23;;;;;;;;;0.00;0.00;;;;;8.51;86.37;100249.81;5059376;28;45127;-59
2023/12/05 08:44:48;;;;;;;;;1.00;1.00;;;;;8.51;86.16;100253.31;5057186;28;73137;-59
2023/12/05 08:47:14;;;;;;;;;1.00;1.00;;;;;8.51;86.05;100263.06;5060181;28;45262;-59
2023/12/05 08:49:40;;;;;;;;;1.67;1.33;;;;;8.52;85.97;100270.94;5058445;28;67976;-59
2023/12/05 08:52:05;;;;;;;;;0.00;0.00;;;;;8.51;85.89;100266.56;5059660;28;46539;-59
2023/12/05 08:54:30;;;;;;;;;0.67;0.67;;;;;8.54;85.82;100273.50;5057373;28;45490;-59
2023/12/05 08:56:56;;;;;;;;;1.00;1.00;;;;;8.54;85.71;100277.03;5055337;28;68994;-59
2023/12/05 08:59:21;;;;;;;;;0.00;0.00;;;;;8.57;85.84;100284.00;5059069;28;62853;-60
2023/12/05 09:01:50;;;;;;;;;2.00;2.00;;;;;8.57;85.41;100284.00;5039968;28;75643;-59
2023/12/05 09:04:15;;;;;;;;;4.00;2.67;;;;;8.56;85.15;100284.91;5059693;28;45631;-58
2023/12/05 09:06:41;;;;;;;;;3.67;3.67;;;;;8.55;85.33;100293.78;5058476;28;67834;-58
2023/12/05 09:09:06;;;;;;;;;4.00;4.00;;;;;8.56;85.64;100292.88;5058840;28;45456;-58
2023/12/05 09:11:31;;;;;;;;;4.00;3.00;;;;;8.58;85.32;100294.50;5058310;28;73268;-59
2023/12/05 09:13:58;;;;;;;;;5.67;3.67;;;;;8.62;85.22;100292.56;5058256;28;72501;-59
2023/12/05 09:16:24;;;;;;;;;3.00;2.00;;;;;8.61;85.29;100304.09;5056093;28;45509;-58
2023/12/05 09:18:49;;;;;;;;;0.00;0.00;;;;;8.64;85.21;100305.75;5059569;28;45613;-59
2023/12/05 09:21:15;;;;;;;;;0.00;0.00;;;;;8.67;85.19;100306.47;5057626;28;47865;-59
2023/12/05 09:23:41;;;;;;;;;2.00;0.00;;;;;8.74;85.23;100314.97;5059627;28;45725;-59
2023/12/05 09:26:06;;;;;;;;;2.00;2.00;;;;;8.78;85.50;100312.06;5058273;28;68075;-59
2023/12/05 09:28:32;;;;;;;;;3.00;1.33;;;;;8.85;85.25;100317.06;5058317;28;52951;-59
2023/12/05 09:30:57;;;;;;;;;0.67;0.67;;;;;8.89;85.19;100329.22;5058954;28;46345;-59
2023/12/05 09:33:23;;;;;;;;;0.00;0.00;;;;;8.92;85.01;100326.44;5091375;27;71037;-59
2023/12/05 09:35:48;;;;;;;;;2.00;0.67;;;;;8.91;84.57;100325.56;5058526;28;69531;-59
2023/12/05 09:38:13;;;;;;;;;2.00;1.00;;;;;8.92;84.37;100331.75;5058174;28;61742;-60
2023/12/05 09:40:39;;;;;;;;;3.00;0.33;;;;;8.90;84.21;100328.31;5058465;28;65967;-60
2023/12/05 09:43:06;;;;;;;;;1.00;1.00;;;;;8.91;84.48;100340.63;5090212;27;73203;-59
2023/12/05 09:45:37;;;;;;;;;1.33;0.67;;;;;8.91;84.19;100335.31;5059440;28;45232;-58
2023/12/05 09:48:04;;;;;;;;;1.00;1.00;;;;;8.92;84.41;100335.25;5057419;28;45389;-59
2023/12/05 09:50:29;;;;;;;;;0.67;0.67;;;;;8.93;84.00;100350.22;5091251;27;47275;-59
2023/12/05 09:52:55;;;;;;;;;1.00;1.00;;;;;8.92;84.10;100350.31;5058434;28;45480;-59
2023/12/05 09:55:21;;;;;;;;;2.00;2.00;;;;;8.96;84.27;100351.00;5092165;27;45463;-60
2023/12/05 09:57:47;;;;;;;;;0.00;0.00;;;;;8.97;84.19;100358.91;5057345;28;65189;-59
2023/12/05 10:00:13;;;;;;;;;1.00;1.00;;;;;9.00;83.82;100364.03;5058850;28;45292;-59
2023/12/05 10:02:40;;;;;;;;;1.00;0.67;;;;;9.01;83.85;100362.22;5057611;28;45433;-59
2023/12/05 10:05:08;;;;;;;;;2.00;1.00;;;;;9.03;83.78;100371.84;5091082;27;45419;-59
2023/12/05 10:07:34;;;;;;;;;1.00;1.00;;;;;9.04;83.95;100367.41;5085991;27;45477;-59
2023/12/05 10:10:01;;;;;;;;;1.00;1.00;;;;;9.06;83.66;100378.78;5057133;28;47607;-62
2023/12/05 10:12:28;;;;;;;;;0.00;0.00;;;;;9.05;83.67;100377.09;5054835;28;45453;-59
2023/12/05 10:14:54;;;;;;;;;2.67;2.00;;;;;9.04;83.46;100389.47;5057330;28;68021;-59
2023/12/05 10:17:21;;;;;;;;;1.00;1.00;;;;;9.04;83.23;100391.28;5057518;28;62975;-59
2023/12/05 10:19:46;;;;;;;;;1.00;1.00;;;;;8.99;83.55;100386.19;5058019;28;46399;-59
2023/12/05 10:22:11;;;;;;;;;3.00;2.00;;;;;9.00;83.46;100398.53;5056473;28;64323;-59
2023/12/05 10:24:47;;;;;;;;;2.67;1.00;;;;;9.01;83.33;100402.03;5073856;28;45441;-59
2023/12/05 10:27:12;;;;;;;;;1.67;1.00;;;;;9.01;83.56;100404.69;5054952;28;45469;-59
2023/12/05 10:29:39;;;;;;;;;0.33;0.33;;;;;9.00;83.63;100408.28;5058720;28;46061;-59
2023/12/05 10:32:05;;;;;;;;;2.00;1.67;;;;;8.98;83.70;100400.38;5058139;28;45375;-58
2023/12/05 10:34:30;;;;;;;;;2.67;2.00;;;;;8.98;83.49;100405.69;5058668;28;45364;-59
2023/12/05 10:37:03;;;;;;;;;1.00;1.00;;;;;9.00;83.53;100410.94;5056808;28;70175;-59
2023/12/05 10:39:35;;;;;;;;;1.00;1.00;;;;;9.00;83.34;100408.28;5058053;28;46064;-59
2023/12/05 10:42:00;;;;;;;;;2.00;2.00;;;;;9.03;83.30;100413.44;5054206;28;45336;-60
2023/12/05 10:44:26;;;;;;;;;1.67;1.67;;;;;9.05;83.24;100409.78;5057360;28;66865;-59
2023/12/05 10:46:56;;;;;;;;;0.00;0.00;;;;;9.06;83.04;100411.50;5057786;28;57737;-60
2023/12/05 10:49:22;;;;;;;;;1.67;1.67;;;;;9.08;82.90;100422.88;5055756;28;48231;-60
2023/12/05 10:51:47;;;;;;;;;2.00;1.00;;;;;9.09;82.69;100416.63;5051274;28;45388;-59
2023/12/05 10:54:12;;;;;;;;;2.67;2.00;;;;;9.12;82.73;100423.59;5048425;28;45766;-59
2023/12/05 10:56:38;;;;;;;;;1.00;1.00;;;;;9.09;82.68;100418.44;5052158;28;70379;-59
2023/12/05 10:59:04;;;;;;;;;0.33;0.33;;;;;9.07;82.15;100423.84;5040203;28;76641;-59
2023/12/05 11:01:30;;;;;;;;;1.00;1.00;;;;;9.06;82.24;100434.50;5089939;27;70844;-59
2023/12/05 11:04:00;;;;;;;;;0.00;0.00;;;;;9.04;82.15;100433.72;5056955;28;69613;-59
2023/12/05 11:06:26;;;;;;;;;1.33;1.00;;;;;9.03;82.49;100434.66;5057738;28;45472;-59
2023/12/05 11:08:51;;;;;;;;;1.00;1.00;;;;;9.02;82.03;100439.13;5057769;28;47224;-59
2023/12/05 11:11:18;;;;;;;;;1.00;1.00;;;;;9.02;82.16;100439.13;5057133;28;45387;-59
2023/12/05 11:13:46;;;;;;;;;1.00;1.00;;;;;9.06;82.49;100437.16;5057857;28;45454;-59
2023/12/05 11:16:18;;;;;;;;;1.00;1.00;;;;;9.07;82.33;100445.06;5089109;27;53888;-59
2023/12/05 11:18:45;;;;;;;;;1.00;1.00;;;;;9.08;81.96;100445.91;5039630;28;47158;-59
2023/12/05 11:21:29;;;;;;;;;1.00;1.00;;;;;9.09;82.07;100447.63;5055489;28;45516;-59
2023/12/05 11:24:07;;;;;;;;;2.00;1.33;;;;;9.10;82.05;100450.19;5052337;28;45434;-59
2023/12/05 11:26:49;;;;;;;;;5.00;2.00;;;;;9.12;82.29;100450.13;5057668;28;45379;-59
2023/12/05 11:29:24;;;;;;;;;3.00;2.00;;;;;9.13;82.20;100445.69;5056917;28;45834;-59
2023/12/05 11:32:13;;;;;;;;;3.00;3.00;;;;;9.14;82.35;100452.69;5036491;28;47995;-57
2023/12/05 11:34:47;;;;;;;;;1.00;1.00;;;;;9.15;82.35;100454.41;5059597;28;45643;-57